Información del aeropuerto LEBB

Información de pista
Pista 10 Longitud 6562 ft Anchura 148 ft
Elevación 116 ft Umbral 0 ft Rumbo 97
Pista 28 Longitud 6562 ft Anchura 148 ft
Elevación 129 ft Umbral 0 ft Rumbo 277
Pista 12 Longitud 8530 ft Anchura 148 ft
Elevación 119 ft Umbral 0 ft Rumbo 117
Pista 30 Longitud 8530 ft Anchura 148 ft
Elevación 128 ft Umbral 1509 ft Rumbo 297
Frecuencias del aeropuerto
Tipo APP Nombre APP Frecuencia 120.7 MHZ
Tipo ATIS Nombre ATIS Frecuencia 118.825 MHZ
Tipo GND Nombre GND Frecuencia 121.7 MHZ
Tipo TWR Nombre TWR Frecuencia 118.5 MHZ
Radioayudas del aeropuerto
Tipo VOR-DME Nombre Bilbao Frecuencia 115900 KHZ
Información meteorológica del aeropuerto y NOTAM
ADDS - METARS form results

(1423 UTC 24 November 2020)
Data provider http://aviationweather.gov/metar/data/
 
METAR text: LEBB 241400Z 18004KT 110V260 CAVOK 18/05 Q1018 NOSIG
Conditions at: LEBB (BILBAO/SONDICA , ES) observed 1400 UTC 24 November 2020
Temperature: 18.0°C (64°F)
Dewpoint: 5.0°C (41°F) [RH = 42%]
Pressure (altimeter): 30.06 inches Hg (1018.0 mb)
Winds: from the S (180 degrees) at 5 MPH (4 knots; 2.1 m/s)
Visibility: 6 or more miles (10+ km)
Ceiling: ceiling and visibility are OK
Clouds: unknown
Weather: no significant weather observed at this time

METAR text: LEBB 241330Z 18003KT 110V250 CAVOK 18/05 Q1019 NOSIG
Conditions at: LEBB (BILBAO/SONDICA , ES) observed 1330 UTC 24 November 2020
Temperature: 18.0°C (64°F)
Dewpoint: 5.0°C (41°F) [RH = 42%]
Pressure (altimeter): 30.09 inches Hg (1019.0 mb)
Winds: from the S (180 degrees) at 3 MPH (3 knots; 1.5 m/s)
Visibility: 6 or more miles (10+ km)
Ceiling: ceiling and visibility are OK
Clouds: unknown
Weather: no significant weather observed at this time

Forecast for: LEBB (BILBAO/SONDICA , ES)
Text: TAF LEBB 241100Z 2412/2512 VRB05KT CAVOK TX18/2414Z TN09/2506Z
Forecast period: 1200 UTC 24 November 2020 to 1200 UTC 25 November 2020
Forecast type: FROM: standard forecast or significant change
Winds: variable direction winds at 6 MPH (5 knots; 2.6 m/s)
Visibility: 6 or more miles (10+ km)
Ceiling: unknown
Clouds: missing
Weather: no significant weather forecast for this period
Text: TEMPO 2412/2512 17012KT
Forecast period: 1200 UTC 24 November 2020 to 1200 UTC 25 November 2020
Forecast type: TEMPORARY: The following changes expected for less than half the time period
Winds: from the S (170 degrees) at 14 MPH (12 knots; 6.2 m/s)
Visibility: missing
Ceiling: unknown
Clouds: missing
Weather: no significant weather forecast for this period